Time;durP1;ratioP1;P1;durP2;ratioP2;P2;SDS_P1;SDS_P2;PMS_P1;PMS_P2;Temp;Humidity;BMP_temperature;BMP_pressure;BME280_temperature;BME280_humidity;BME280_pressure;Samples;Min_cycle;Max_cycle;Signal;HPM_P1;HPM_P2
2024/03/12 00:00:34;;;;;;;58.87;28.87;;;8.50;99.90;;;;;;805383;176;26710;-82
2024/03/12 00:03:09;;;;;;;61.13;31.53;;;8.50;99.90;;;;;;810375;176;26450;-82
2024/03/12 00:05:40;;;;;;;47.83;25.13;;;8.40;99.90;;;;;;805584;178;26443;-82
2024/03/12 00:10:53;;;;;;;38.97;20.70;;;8.40;99.90;;;;;;807143;177;26410;-81
2024/03/12 00:13:23;;;;;;;47.13;23.43;;;8.40;99.90;;;;;;803006;178;26514;-80
2024/03/12 00:15:54;;;;;;;47.47;22.63;;;8.40;99.90;;;;;;806058;177;26983;-81
2024/03/12 00:18:24;;;;;;;47.33;22.60;;;8.40;99.90;;;;;;804252;177;26432;-81
2024/03/12 00:20:51;;;;;;;128.90;53.63;;;8.40;99.90;;;;;;808499;177;26975;-81
2024/03/12 00:23:18;;;;;;;131.57;57.07;;;8.30;99.90;;;;;;805345;175;26463;-81
2024/03/12 00:25:47;;;;;;;108.77;43.13;;;8.30;99.90;;;;;;806334;176;26484;-80
2024/03/12 00:28:16;;;;;;;100.37;41.73;;;8.30;99.90;;;;;;807586;176;26483;-82
2024/03/12 00:30:44;;;;;;;99.67;43.47;;;8.30;99.90;;;;;;808593;176;26573;-81
2024/03/12 00:33:12;;;;;;;76.07;30.97;;;8.30;99.90;;;;;;793360;181;26471;-81
2024/03/12 00:35:46;;;;;;;79.37;31.23;;;8.30;99.90;;;;;;808231;177;26616;-82
2024/03/12 00:38:17;;;;;;;78.93;32.70;;;8.30;99.90;;;;;;794608;176;26438;-81
2024/03/12 00:40:50;;;;;;;82.00;33.40;;;8.30;99.90;;;;;;793875;177;26618;-82
2024/03/12 00:43:15;;;;;;;89.33;34.27;;;8.20;99.90;;;;;;809206;173;26463;-84
2024/03/12 00:45:50;;;;;;;95.80;38.20;;;8.30;99.90;;;;;;806229;178;26435;-81
2024/03/12 00:48:20;;;;;;;92.57;37.07;;;8.30;99.90;;;;;;791557;181;26444;-82
2024/03/12 00:50:49;;;;;;;110.03;41.63;;;8.30;99.90;;;;;;810571;173;26439;-82
2024/03/12 00:53:19;;;;;;;90.23;38.57;;;8.30;99.90;;;;;;807549;174;26447;-82
2024/03/12 00:55:51;;;;;;;86.00;33.73;;;8.30;99.90;;;;;;806592;173;26473;-82
2024/03/12 00:58:23;;;;;;;103.87;41.43;;;8.30;99.90;;;;;;806197;178;26432;-81
2024/03/12 01:00:53;;;;;;;92.40;37.27;;;8.30;99.90;;;;;;807543;178;26451;-81
2024/03/12 01:03:21;;;;;;;100.37;41.13;;;8.30;99.90;;;;;;807477;177;26451;-82
2024/03/12 01:05:51;;;;;;;93.23;36.43;;;8.30;99.90;;;;;;807057;175;26474;-83
2024/03/12 01:08:23;;;;;;;101.90;39.50;;;8.40;99.90;;;;;;792391;178;26515;-82
2024/03/12 01:10:51;;;;;;;109.40;40.83;;;8.30;99.90;;;;;;807808;177;26423;-83
2024/03/12 01:13:20;;;;;;;120.50;44.20;;;8.40;99.90;;;;;;806944;177;26471;-80
2024/03/12 01:15:56;;;;;;;109.10;40.17;;;8.40;99.90;;;;;;809098;177;26467;-82
2024/03/12 01:18:25;;;;;;;137.67;45.10;;;8.30;99.90;;;;;;808092;178;26480;-82
2024/03/12 01:20:56;;;;;;;114.73;40.40;;;8.30;99.90;;;;;;805332;174;26427;-79
2024/03/12 01:23:26;;;;;;;135.00;53.50;;;8.30;99.90;;;;;;808475;176;26460;-81
2024/03/12 01:25:54;;;;;;;135.83;48.67;;;8.40;99.90;;;;;;805761;178;26439;-80
2024/03/12 01:28:23;;;;;;;116.27;45.40;;;8.30;99.90;;;;;;804525;178;27016;-79
2024/03/12 01:30:51;;;;;;;137.93;51.37;;;8.30;99.90;;;;;;808079;175;26430;-82
2024/03/12 01:33:19;;;;;;;131.77;48.20;;;8.40;99.90;;;;;;808236;177;26472;-81
2024/03/12 01:35:48;;;;;;;129.13;47.30;;;8.40;99.90;;;;;;807931;176;26920;-81
2024/03/12 01:38:21;;;;;;;114.97;43.67;;;8.40;99.90;;;;;;809193;175;26425;-79
2024/03/12 01:40:50;;;;;;;113.03;43.80;;;8.40;99.90;;;;;;810772;176;26487;-82
2024/03/12 01:43:19;;;;;;;113.97;41.73;;;8.40;99.90;;;;;;809908;175;26452;-82
2024/03/12 01:45:46;;;;;;;119.67;44.60;;;8.40;99.90;;;;;;810398;175;26457;-82
2024/03/12 01:48:16;;;;;;;126.70;46.10;;;8.40;99.90;;;;;;807684;177;26439;-79
2024/03/12 01:50:45;;;;;;;122.00;46.43;;;8.40;99.90;;;;;;807368;176;26469;-82
2024/03/12 01:53:13;;;;;;;155.57;56.37;;;8.40;99.90;;;;;;809378;177;26435;-82
2024/03/12 01:55:52;;;;;;;138.23;51.40;;;8.40;99.90;;;;;;805662;175;26411;-82
2024/03/12 01:58:24;;;;;;;128.27;49.63;;;8.40;99.90;;;;;;804308;178;26414;-80
2024/03/12 02:00:52;;;;;;;119.07;45.13;;;8.40;99.90;;;;;;808204;177;26425;-82
2024/03/12 02:03:21;;;;;;;120.70;48.63;;;8.40;99.90;;;;;;809515;174;26446;-82
2024/03/12 02:05:49;;;;;;;110.80;43.77;;;8.30;99.90;;;;;;805610;177;26431;-81
2024/03/12 02:08:25;;;;;;;125.33;48.90;;;8.30;99.90;;;;;;807198;173;26439;-79
2024/03/12 02:10:52;;;;;;;127.13;48.77;;;8.30;99.90;;;;;;806375;176;26455;-80
2024/03/12 02:16:01;;;;;;;150.07;56.57;;;8.30;99.90;;;;;;806862;175;26405;-81
2024/03/12 02:18:34;;;;;;;158.57;60.00;;;8.30;99.90;;;;;;806956;173;26452;-85
2024/03/12 02:21:14;;;;;;;155.93;57.27;;;8.40;99.90;;;;;;808709;173;26629;-85
2024/03/12 02:23:43;;;;;;;123.83;47.67;;;8.50;99.90;;;;;;807552;173;26516;-86
2024/03/12 02:26:15;;;;;;;115.83;46.13;;;8.50;99.90;;;;;;807723;174;26794;-85
2024/03/12 02:28:45;;;;;;;114.87;45.97;;;8.50;99.90;;;;;;808746;173;26426;-81
2024/03/12 02:31:27;;;;;;;117.00;48.40;;;8.50;99.90;;;;;;805644;174;26555;-84
2024/03/12 02:34:03;;;;;;;116.30;47.97;;;8.50;99.90;;;;;;809633;173;26449;-83
2024/03/12 02:36:36;;;;;;;124.20;49.77;;;8.50;99.90;;;;;;808130;174;26484;-83
2024/03/12 02:39:08;;;;;;;138.20;55.40;;;8.50;99.90;;;;;;808048;173;26424;-86
2024/03/12 02:41:40;;;;;;;131.80;51.70;;;8.50;99.90;;;;;;805859;173;26424;-86
2024/03/12 02:44:14;;;;;;;140.80;53.67;;;8.50;99.90;;;;;;807785;174;26428;-84
2024/03/12 02:46:44;;;;;;;121.93;49.70;;;8.50;99.90;;;;;;809831;173;26418;-82
2024/03/12 02:49:14;;;;;;;132.97;54.17;;;8.50;99.90;;;;;;806867;174;26462;-85
2024/03/12 02:51:50;;;;;;;129.17;50.73;;;8.50;99.90;;;;;;808533;174;26439;-84
2024/03/12 02:54:20;;;;;;;114.93;48.80;;;8.50;99.90;;;;;;808874;176;26423;-84
2024/03/12 02:56:48;;;;;;;107.47;44.03;;;8.60;99.90;;;;;;809270;173;26507;-85
2024/03/12 02:59:21;;;;;;;124.03;52.30;;;8.50;99.90;;;;;;807507;173;26431;-86
2024/03/12 03:01:55;;;;;;;109.00;46.03;;;8.50;99.90;;;;;;808277;173;26537;-84
2024/03/12 03:04:32;;;;;;;95.13;39.40;;;8.50;99.90;;;;;;807654;173;26425;-85
2024/03/12 03:07:00;;;;;;;109.57;47.80;;;8.50;99.90;;;;;;790812;177;26462;-86
2024/03/12 03:12:12;;;;;;;119.57;52.60;;;8.50;99.90;;;;;;811046;173;26453;-86
2024/03/12 03:17:20;;;;;;;110.60;47.07;;;8.50;99.90;;;;;;808767;173;26428;-82
2024/03/12 03:19:49;;;;;;;88.77;40.37;;;8.60;99.90;;;;;;808249;177;26480;-82
2024/03/12 03:22:24;;;;;;;104.53;45.47;;;8.60;99.90;;;;;;790673;177;26469;-85
2024/03/12 03:24:51;;;;;;;88.40;40.33;;;8.60;99.90;;;;;;808161;173;26458;-82
2024/03/12 03:27:22;;;;;;;88.03;40.97;;;8.60;99.90;;;;;;805583;178;26446;-82
2024/03/12 03:29:56;;;;;;;85.70;38.77;;;8.60;99.90;;;;;;808195;177;26744;-83
2024/03/12 03:32:37;;;;;;;72.27;35.13;;;8.50;99.90;;;;;;809457;174;26600;-85
2024/03/12 03:35:17;;;;;;;81.60;37.23;;;8.60;99.90;;;;;;791093;178;26453;-84
2024/03/12 03:37:49;;;;;;;77.17;37.60;;;8.50;99.90;;;;;;807284;173;26516;-82
2024/03/12 03:40:22;;;;;;;67.93;35.27;;;8.50;99.90;;;;;;807253;174;26431;-86
2024/03/12 03:42:55;;;;;;;75.07;36.50;;;8.50;99.90;;;;;;788800;177;26506;-83
2024/03/12 03:47:59;;;;;;;80.40;39.23;;;8.40;99.90;;;;;;787275;178;26449;-85
2024/03/12 03:50:26;;;;;;;74.77;37.77;;;8.50;99.90;;;;;;806116;174;26684;-85
2024/03/12 03:52:55;;;;;;;90.37;39.03;;;8.50;99.90;;;;;;807620;173;26462;-85
2024/03/12 03:55:25;;;;;;;80.53;37.47;;;8.50;99.90;;;;;;805690;174;26524;-81
2024/03/12 03:57:55;;;;;;;74.13;33.30;;;8.40;99.90;;;;;;790915;177;26465;-81
2024/03/12 04:00:31;;;;;;;77.73;34.80;;;8.40;99.90;;;;;;806365;176;26498;-82
2024/03/12 04:03:00;;;;;;;72.57;35.13;;;8.30;99.90;;;;;;806523;177;26450;-81
2024/03/12 04:05:32;;;;;;;69.13;35.03;;;8.30;99.90;;;;;;808454;176;26513;-83
2024/03/12 04:07:58;;;;;;;73.93;36.73;;;8.20;99.90;;;;;;805706;177;26422;-81
2024/03/12 04:10:26;;;;;;;85.43;37.53;;;8.20;99.90;;;;;;807286;174;26459;-81
2024/03/12 04:12:56;;;;;;;71.93;33.87;;;8.20;99.90;;;;;;805970;178;26447;-79
2024/03/12 04:15:32;;;;;;;72.67;32.77;;;8.20;99.90;;;;;;789588;180;26457;-81
2024/03/12 04:18:01;;;;;;;65.17;32.23;;;8.20;99.90;;;;;;806506;177;26405;-81
2024/03/12 04:20:29;;;;;;;66.57;30.60;;;8.20;99.90;;;;;;806974;175;26422;-81
2024/03/12 04:22:59;;;;;;;54.10;29.20;;;8.20;99.90;;;;;;790795;178;26487;-81
2024/03/12 04:25:30;;;;;;;62.40;30.47;;;8.20;99.90;;;;;;806234;178;26434;-81
2024/03/12 04:30:38;;;;;;;53.03;29.43;;;8.20;99.90;;;;;;805623;178;26983;-81
2024/03/12 04:33:17;;;;;;;63.03;30.77;;;8.20;99.90;;;;;;806307;175;26450;-80
2024/03/12 04:35:47;;;;;;;53.77;29.67;;;8.20;99.90;;;;;;805414;175;26422;-79
2024/03/12 04:38:18;;;;;;;64.30;31.07;;;8.20;99.90;;;;;;791193;181;26452;-80
2024/03/12 04:40:51;;;;;;;59.30;30.90;;;8.20;99.90;;;;;;806572;177;27086;-82
2024/03/12 04:43:32;;;;;;;63.23;30.37;;;8.10;99.90;;;;;;803472;175;26460;-82
2024/03/12 04:46:01;;;;;;;66.43;32.40;;;8.10;99.90;;;;;;799473;177;26451;-82
2024/03/12 04:48:34;;;;;;;66.20;28.40;;;8.10;99.90;;;;;;807118;177;26454;-82
2024/03/12 04:53:36;;;;;;;69.17;32.97;;;8.10;99.90;;;;;;807896;177;26458;-81
2024/03/12 04:56:04;;;;;;;68.17;32.47;;;8.10;99.90;;;;;;805210;173;26430;-81
2024/03/12 04:58:31;;;;;;;59.57;29.83;;;8.10;99.90;;;;;;805587;177;26998;-83
2024/03/12 05:01:19;;;;;;;62.23;30.83;;;8.00;99.90;;;;;;805389;178;26463;-81
2024/03/12 05:03:54;;;;;;;68.30;30.63;;;8.10;99.90;;;;;;806616;177;26451;-81
2024/03/12 05:06:23;;;;;;;78.03;34.97;;;8.00;99.90;;;;;;807931;174;26469;-81
2024/03/12 05:08:52;;;;;;;67.97;32.17;;;8.00;99.90;;;;;;805135;174;26432;-84
2024/03/12 05:11:25;;;;;;;70.47;31.40;;;8.00;99.90;;;;;;806132;176;26434;-81
2024/03/12 05:13:54;;;;;;;80.20;33.80;;;8.00;99.90;;;;;;789857;180;26499;-81
2024/03/12 05:16:27;;;;;;;74.70;33.93;;;8.00;99.90;;;;;;807607;176;26407;-80
2024/03/12 05:18:57;;;;;;;69.10;32.80;;;8.00;99.90;;;;;;792483;180;26457;-83
2024/03/12 05:21:27;;;;;;;76.47;34.37;;;8.00;99.90;;;;;;806743;176;26451;-83
2024/03/12 05:23:57;;;;;;;74.00;35.03;;;8.00;99.90;;;;;;790936;177;26500;-81
2024/03/12 05:26:29;;;;;;;76.20;32.50;;;8.00;99.90;;;;;;777439;181;26532;-81
2024/03/12 05:28:58;;;;;;;77.63;32.60;;;8.00;99.90;;;;;;805338;178;26517;-81
2024/03/12 05:31:32;;;;;;;80.67;38.03;;;8.00;99.90;;;;;;805496;173;26434;-80
2024/03/12 05:34:15;;;;;;;83.67;35.83;;;8.00;99.90;;;;;;791157;181;26707;-81
2024/03/12 05:36:48;;;;;;;96.20;37.20;;;8.00;99.90;;;;;;805902;177;26417;-78
2024/03/12 05:39:20;;;;;;;90.33;35.73;;;7.90;99.90;;;;;;789385;181;26451;-81
2024/03/12 05:48:07;;;;;;;80.83;35.37;;;7.90;99.90;;;;;;805567;177;26427;-81
2024/03/12 05:49:28;;;;;;;82.03;35.57;;;7.90;99.90;;;;;;806740;177;26455;-81
2024/03/12 05:52:00;;;;;;;82.07;34.57;;;7.90;99.90;;;;;;805702;177;26459;-81
2024/03/12 05:54:31;;;;;;;74.70;33.97;;;8.00;99.90;;;;;;798634;169;26491;-80
2024/03/12 05:57:05;;;;;;;70.43;32.53;;;7.90;99.90;;;;;;801550;178;26459;-82
2024/03/12 05:59:37;;;;;;;76.23;34.37;;;8.00;99.90;;;;;;802701;178;26440;-81
2024/03/12 06:02:06;;;;;;;66.47;31.07;;;8.00;99.90;;;;;;803614;178;26484;-82
2024/03/12 06:04:36;;;;;;;62.87;30.80;;;8.00;99.90;;;;;;793851;178;26471;-82
2024/03/12 06:07:06;;;;;;;72.67;33.00;;;8.00;99.90;;;;;;786754;180;26459;-78
2024/03/12 06:09:44;;;;;;;65.60;31.37;;;8.00;99.90;;;;;;787229;182;26452;-80
2024/03/12 06:12:13;;;;;;;70.17;31.83;;;8.00;99.90;;;;;;789076;182;26464;-79
2024/03/12 06:14:44;;;;;;;65.37;32.10;;;8.00;99.90;;;;;;785359;180;26486;-81
2024/03/12 06:17:12;;;;;;;64.30;30.47;;;8.10;99.90;;;;;;785870;182;26464;-81
2024/03/12 06:19:41;;;;;;;72.10;33.30;;;8.00;99.90;;;;;;786297;182;26480;-80
2024/03/12 06:22:11;;;;;;;75.47;34.10;;;8.00;99.90;;;;;;787182;182;26507;-82
2024/03/12 06:24:40;;;;;;;59.83;24.30;;;8.00;99.90;;;;;;790621;177;26478;-80
2024/03/12 06:27:17;;;;;;;73.50;30.97;;;7.90;99.90;;;;;;788530;181;26476;-81
2024/03/12 06:29:49;;;;;;;80.63;34.83;;;7.90;99.90;;;;;;787413;181;26493;-80
2024/03/12 06:32:20;;;;;;;98.80;38.80;;;7.90;99.90;;;;;;786283;181;26605;-80
2024/03/12 06:34:52;;;;;;;81.37;34.67;;;7.90;99.90;;;;;;788496;178;27020;-80
2024/03/12 06:37:19;;;;;;;80.70;34.23;;;7.90;99.90;;;;;;788105;181;26448;-81
2024/03/12 06:39:46;;;;;;;90.10;37.60;;;7.80;99.90;;;;;;768417;186;26661;-81
2024/03/12 06:42:19;;;;;;;92.13;35.87;;;7.80;99.90;;;;;;781789;182;26481;-81
2024/03/12 06:44:44;;;;;;;80.17;35.10;;;7.80;99.90;;;;;;790472;178;26625;-81
2024/03/12 06:47:15;;;;;;;91.90;35.63;;;7.80;99.90;;;;;;788014;182;26482;-82
2024/03/12 06:49:44;;;;;;;78.23;34.30;;;7.90;99.90;;;;;;780567;183;26485;-81
2024/03/12 06:52:15;;;;;;;76.63;33.83;;;7.90;99.90;;;;;;789335;179;26465;-82
2024/03/12 06:54:50;;;;;;;75.33;30.90;;;7.80;99.90;;;;;;791332;178;26468;-82
2024/03/12 06:57:22;;;;;;;62.97;27.77;;;7.90;99.90;;;;;;779857;183;26471;-81
2024/03/12 06:59:51;;;;;;;79.33;33.77;;;7.80;99.90;;;;;;786265;181;26608;-81
2024/03/12 07:02:20;;;;;;;71.20;31.83;;;7.90;99.90;;;;;;789210;182;26452;-80
2024/03/12 07:04:51;;;;;;;66.10;28.50;;;7.90;99.90;;;;;;783607;179;26527;-81
2024/03/12 07:07:21;;;;;;;62.13;27.97;;;7.90;99.90;;;;;;778656;182;26461;-81
2024/03/12 07:09:55;;;;;;;56.20;26.60;;;7.90;99.90;;;;;;790524;181;26483;-80
2024/03/12 07:12:21;;;;;;;63.40;27.63;;;7.90;99.90;;;;;;778006;183;26475;-81
2024/03/12 07:15:00;;;;;;;66.10;28.47;;;7.90;99.90;;;;;;778283;183;26619;-81
2024/03/12 07:17:40;;;;;;;58.43;28.93;;;7.90;99.90;;;;;;787831;181;26468;-80
2024/03/12 07:20:11;;;;;;;58.10;27.87;;;7.90;99.90;;;;;;789297;181;26481;-80
2024/03/12 07:22:37;;;;;;;60.23;26.37;;;7.90;99.90;;;;;;781954;183;26484;-80
2024/03/12 07:25:06;;;;;;;65.37;28.33;;;8.00;99.90;;;;;;784227;179;26497;-82
2024/03/12 07:27:31;;;;;;;70.87;30.93;;;7.90;99.90;;;;;;782828;183;26708;-82
2024/03/12 07:29:59;;;;;;;61.90;28.33;;;7.90;99.90;;;;;;786808;182;26455;-81
2024/03/12 07:32:25;;;;;;;61.73;27.63;;;7.90;99.90;;;;;;788271;182;26472;-82
2024/03/12 07:34:51;;;;;;;88.20;33.00;;;7.80;99.90;;;;;;789485;179;26459;-81
2024/03/12 07:37:18;;;;;;;75.13;30.00;;;7.80;99.90;;;;;;780312;182;26471;-80
2024/03/12 07:39:46;;;;;;;75.60;31.40;;;7.80;99.90;;;;;;793092;181;26451;-78
2024/03/12 07:42:18;;;;;;;77.83;32.57;;;7.80;99.90;;;;;;783965;183;26487;-81
2024/03/12 07:44:38;;;;;;;73.67;31.37;;;7.90;99.90;;;;;;787183;181;26488;-78
2024/03/12 07:47:05;;;;;;;75.90;31.37;;;8.00;99.90;;;;;;785062;183;26487;-81
2024/03/12 07:49:36;;;;;;;69.73;29.80;;;8.00;99.90;;;;;;790597;181;26487;-81
2024/03/12 07:52:00;;;;;;;63.03;29.83;;;7.90;99.90;;;;;;776075;182;26601;-80
2024/03/12 07:54:27;;;;;;;66.63;29.40;;;7.80;99.90;;;;;;787960;182;26467;-82
2024/03/12 07:56:54;;;;;;;71.07;30.90;;;7.80;99.90;;;;;;778750;183;26493;-81
2024/03/12 07:59:21;;;;;;;75.27;31.73;;;7.80;99.90;;;;;;768035;183;26621;-80
2024/03/12 08:01:49;;;;;;;70.33;32.10;;;7.80;99.90;;;;;;779372;183;26626;-80
2024/03/12 08:04:14;;;;;;;66.40;28.27;;;7.80;99.90;;;;;;780700;183;26512;-81
2024/03/12 08:06:43;;;;;;;75.23;32.10;;;7.80;99.90;;;;;;787584;182;27053;-81
2024/03/12 08:09:08;;;;;;;84.03;34.53;;;7.80;99.90;;;;;;780150;183;26471;-80
2024/03/12 08:11:36;;;;;;;82.17;33.07;;;7.90;99.90;;;;;;783160;182;26461;-81
2024/03/12 08:14:03;;;;;;;74.60;32.37;;;8.00;99.90;;;;;;783181;179;26643;-81
2024/03/12 08:16:29;;;;;;;73.67;32.33;;;7.90;99.90;;;;;;788065;182;26464;-82
2024/03/12 08:18:58;;;;;;;76.47;33.27;;;7.90;99.90;;;;;;781902;183;26615;-81
2024/03/12 08:21:22;;;;;;;85.73;35.37;;;7.90;99.90;;;;;;785318;182;26461;-80
2024/03/12 08:23:50;;;;;;;81.63;34.93;;;7.90;99.90;;;;;;787451;180;26485;-80
2024/03/12 08:26:16;;;;;;;75.50;34.20;;;7.90;99.90;;;;;;787931;181;26524;-79
2024/03/12 08:28:45;;;;;;;74.17;31.07;;;8.00;99.90;;;;;;782116;183;26488;-80
2024/03/12 08:31:09;;;;;;;81.23;34.60;;;7.90;99.90;;;;;;781223;182;26468;-80
2024/03/12 08:33:36;;;;;;;66.23;30.73;;;8.00;99.90;;;;;;788392;178;26483;-80
2024/03/12 08:36:03;;;;;;;77.13;33.00;;;8.00;99.90;;;;;;781322;183;26498;-80
2024/03/12 08:38:31;;;;;;;67.57;30.00;;;8.10;99.90;;;;;;784580;182;27516;-80
2024/03/12 08:40:56;;;;;;;71.97;31.03;;;8.10;99.90;;;;;;784773;182;26640;-81
2024/03/12 08:43:23;;;;;;;53.67;25.83;;;8.10;99.90;;;;;;785124;182;26451;-80
2024/03/12 08:45:49;;;;;;;69.70;32.10;;;8.10;99.90;;;;;;778018;183;27031;-80
2024/03/12 08:48:16;;;;;;;62.13;27.97;;;8.10;99.90;;;;;;784792;181;26607;-80
2024/03/12 08:50:43;;;;;;;67.50;31.47;;;8.10;99.90;;;;;;789077;181;26604;-81
2024/03/12 08:53:11;;;;;;;58.03;29.03;;;8.10;99.90;;;;;;787536;181;26531;-82
2024/03/12 08:55:37;;;;;;;68.23;31.73;;;8.10;99.90;;;;;;788827;181;26823;-81
2024/03/12 08:58:03;;;;;;;58.90;29.60;;;8.20;99.90;;;;;;780755;182;27044;-80
2024/03/12 09:00:29;;;;;;;55.47;27.17;;;8.20;99.90;;;;;;787869;181;27012;-79
2024/03/12 09:02:56;;;;;;;65.63;30.20;;;8.20;99.90;;;;;;781319;183;26500;-80
2024/03/12 09:05:23;;;;;;;75.77;35.07;;;8.20;99.90;;;;;;782277;183;26521;-80
2024/03/12 09:07:49;;;;;;;58.03;29.50;;;8.30;99.90;;;;;;787478;181;26468;-80
2024/03/12 09:10:16;;;;;;;58.47;29.70;;;8.30;99.90;;;;;;775083;184;26472;-80
2024/03/12 09:12:43;;;;;;;60.17;30.50;;;8.30;99.90;;;;;;786902;182;27018;-79
2024/03/12 09:15:10;;;;;;;57.77;28.20;;;8.30;99.90;;;;;;770684;186;26511;-79
2024/03/12 09:17:37;;;;;;;61.73;28.83;;;8.30;99.90;;;;;;772685;183;27039;-81
2024/03/12 09:20:09;;;;;;;48.30;26.47;;;8.30;99.90;;;;;;755604;188;26504;-77
2024/03/12 09:22:32;;;;;;;60.43;30.33;;;8.30;99.90;;;;;;773448;183;26472;-79
2024/03/12 09:24:59;;;;;;;69.50;31.77;;;8.30;99.90;;;;;;777675;183;26494;-80
2024/03/12 09:27:26;;;;;;;58.50;29.53;;;8.40;99.90;;;;;;786525;182;26464;-80
2024/03/12 09:29:52;;;;;;;52.50;26.70;;;8.50;99.90;;;;;;787651;181;26573;-80
2024/03/12 09:32:19;;;;;;;48.50;25.17;;;8.50;99.90;;;;;;784885;182;27067;-79
2024/03/12 09:34:47;;;;;;;58.10;30.07;;;8.50;99.90;;;;;;779700;183;26489;-80
2024/03/12 09:37:15;;;;;;;67.43;36.63;;;8.60;99.90;;;;;;781564;183;26488;-80
2024/03/12 09:39:39;;;;;;;60.23;30.50;;;8.60;99.90;;;;;;786913;182;26623;-80
2024/03/12 09:42:07;;;;;;;52.90;26.23;;;8.60;99.90;;;;;;780676;183;26571;-80
2024/03/12 09:44:35;;;;;;;55.07;28.70;;;8.70;99.90;;;;;;781032;179;26477;-81
2024/03/12 09:47:01;;;;;;;59.87;29.20;;;8.70;99.90;;;;;;776777;183;26481;-81
2024/03/12 09:49:29;;;;;;;45.37;25.60;;;8.70;99.90;;;;;;775987;183;26488;-81
2024/03/12 09:51:53;;;;;;;41.17;21.20;;;8.70;99.90;;;;;;781024;183;26623;-80
2024/03/12 09:54:21;;;;;;;49.80;25.80;;;8.70;99.90;;;;;;787302;182;26473;-80
2024/03/12 09:56:47;;;;;;;55.33;28.20;;;8.70;99.90;;;;;;778472;184;26622;-81
2024/03/12 09:59:14;;;;;;;53.17;27.87;;;8.80;99.90;;;;;;790341;180;26455;-80
2024/03/12 10:01:40;;;;;;;70.17;34.87;;;8.80;99.90;;;;;;783514;183;26476;-81
2024/03/12 10:04:07;;;;;;;67.43;33.00;;;8.80;99.90;;;;;;786287;181;26509;-80
2024/03/12 10:06:35;;;;;;;95.07;45.60;;;8.80;99.90;;;;;;775388;183;26481;-80
2024/03/12 10:09:01;;;;;;;63.23;33.27;;;8.80;99.90;;;;;;781598;183;26473;-80
2024/03/12 10:11:27;;;;;;;53.10;28.30;;;8.80;99.90;;;;;;784947;182;26483;-80
2024/03/12 10:13:56;;;;;;;48.50;26.33;;;8.90;99.90;;;;;;769169;183;26667;-79
2024/03/12 10:16:24;;;;;;;46.10;23.30;;;8.90;99.90;;;;;;786654;180;26491;-81
2024/03/12 10:18:50;;;;;;;58.60;30.30;;;9.00;99.90;;;;;;788478;181;26472;-81
2024/03/12 10:21:17;;;;;;;67.27;32.53;;;9.00;99.90;;;;;;774415;183;26499;-81
2024/03/12 10:23:46;;;;;;;77.77;38.40;;;9.10;99.90;;;;;;784549;178;26502;-81
2024/03/12 10:26:16;;;;;;;54.83;28.73;;;9.20;99.90;;;;;;783853;183;26631;-80
2024/03/12 10:28:40;;;;;;;51.00;26.60;;;9.30;99.90;;;;;;781716;183;26523;-81
2024/03/12 10:31:08;;;;;;;54.33;28.27;;;9.30;99.90;;;;;;780613;183;26560;-80
2024/03/12 10:33:34;;;;;;;52.60;27.00;;;9.30;99.90;;;;;;783313;179;26545;-80
2024/03/12 10:36:01;;;;;;;71.07;36.43;;;9.30;99.90;;;;;;778815;183;26529;-80
2024/03/12 10:38:27;;;;;;;72.00;38.07;;;9.20;99.90;;;;;;777633;183;26514;-81
2024/03/12 10:40:56;;;;;;;53.70;28.13;;;9.20;99.90;;;;;;779553;183;27736;-80
2024/03/12 10:43:24;;;;;;;59.17;28.40;;;9.20;99.90;;;;;;777237;182;26669;-78
2024/03/12 10:45:49;;;;;;;62.90;32.17;;;9.30;99.90;;;;;;777157;183;26480;-80
2024/03/12 10:48:14;;;;;;;63.87;32.80;;;9.30;99.90;;;;;;784111;183;26489;-79
2024/03/12 10:50:42;;;;;;;85.40;42.37;;;9.40;99.90;;;;;;789396;182;26457;-80
2024/03/12 10:53:08;;;;;;;99.47;45.37;;;9.50;99.90;;;;;;788136;182;26457;-78
2024/03/12 10:55:34;;;;;;;64.33;34.37;;;9.60;99.90;;;;;;770148;183;26488;-80
2024/03/12 10:58:02;;;;;;;50.47;28.83;;;9.60;99.90;;;;;;782416;182;26482;-80
2024/03/12 11:00:28;;;;;;;52.97;28.67;;;9.60;99.90;;;;;;783025;183;26479;-81
2024/03/12 11:02:55;;;;;;;84.73;43.30;;;9.70;99.90;;;;;;781456;183;27040;-81
2024/03/12 11:05:22;;;;;;;60.83;33.70;;;9.60;99.90;;;;;;778568;183;26523;-81
2024/03/12 11:07:49;;;;;;;84.33;42.83;;;9.60;99.90;;;;;;781394;183;26515;-80
2024/03/12 11:10:15;;;;;;;50.70;29.17;;;9.70;99.90;;;;;;780816;181;26477;-80
2024/03/12 11:12:43;;;;;;;55.07;30.20;;;9.70;99.90;;;;;;784590;181;26593;-80
2024/03/12 11:15:10;;;;;;;57.97;33.23;;;9.60;99.90;;;;;;783033;180;26490;-80
2024/03/12 11:17:37;;;;;;;59.10;33.23;;;9.50;99.90;;;;;;781521;182;26486;-81
2024/03/12 11:20:05;;;;;;;60.77;34.23;;;9.60;99.90;;;;;;780266;183;26480;-80
2024/03/12 11:22:31;;;;;;;93.20;43.37;;;9.60;99.90;;;;;;784818;182;26482;-80
2024/03/12 11:24:57;;;;;;;64.57;34.37;;;9.70;99.90;;;;;;788990;178;26501;-79
2024/03/12 11:27:25;;;;;;;91.10;46.57;;;9.80;99.90;;;;;;780526;182;26497;-80
2024/03/12 11:30:10;;;;;;;58.03;32.37;;;9.90;99.90;;;;;;785361;181;26529;-81
2024/03/12 11:32:35;;;;;;;94.83;46.37;;;10.00;99.90;;;;;;786295;179;26434;-80
2024/03/12 11:35:08;;;;;;;90.77;43.63;;;10.00;99.90;;;;;;789874;179;26591;-81
2024/03/12 11:37:32;;;;;;;78.17;40.97;;;10.00;99.90;;;;;;790165;180;26617;-79
2024/03/12 11:40:22;;;;;;;130.27;60.70;;;10.10;99.90;;;;;;788585;181;26488;-80
2024/03/12 11:42:49;;;;;;;69.83;36.07;;;10.10;99.90;;;;;;777954;182;26451;-80
2024/03/12 11:45:37;;;;;;;60.83;35.10;;;10.10;99.90;;;;;;788121;182;26653;-80
2024/03/12 11:48:07;;;;;;;76.47;39.37;;;10.30;99.90;;;;;;788176;181;26480;-81
2024/03/12 11:50:33;;;;;;;49.70;28.23;;;10.30;99.90;;;;;;787900;180;26479;-81
2024/03/12 11:53:11;;;;;;;56.53;27.93;;;10.10;99.90;;;;;;765707;187;26651;-81
2024/03/12 11:56:05;;;;;;;109.63;48.27;;;10.10;99.90;;;;;;778963;170;26506;-78
2024/03/12 11:58:37;;;;;;;148.20;66.83;;;10.20;99.90;;;;;;804753;174;26449;-79
2024/03/12 12:01:02;;;;;;;101.97;48.37;;;10.40;99.90;;;;;;796732;178;26476;-80
2024/03/12 12:03:31;;;;;;;112.97;54.40;;;10.60;99.90;;;;;;807642;177;26438;-80
2024/03/12 12:05:58;;;;;;;63.07;35.00;;;10.90;99.90;;;;;;796865;177;26473;-78
2024/03/12 12:08:24;;;;;;;58.70;31.77;;;11.20;99.90;;;;;;794049;180;26496;-79
2024/03/12 12:10:57;;;;;;;62.67;33.67;;;11.30;99.90;;;;;;796394;180;26463;-79
2024/03/12 12:13:25;;;;;;;61.40;31.53;;;11.60;99.90;;;;;;782281;183;26473;-78
2024/03/12 12:16:02;;;;;;;54.77;28.33;;;11.80;99.90;;;;;;779760;182;26493;-77
2024/03/12 12:18:29;;;;;;;50.37;29.23;;;12.00;99.90;;;;;;795835;180;26507;-79
2024/03/12 12:20:56;;;;;;;101.90;45.80;;;11.40;99.90;;;;;;793670;178;26487;-78
2024/03/12 12:23:23;;;;;;;58.70;32.57;;;11.20;99.90;;;;;;794587;179;26474;-79
2024/03/12 12:25:50;;;;;;;75.60;39.57;;;11.30;99.90;;;;;;783821;182;26493;-78
2024/03/12 12:28:18;;;;;;;70.13;38.10;;;11.60;99.90;;;;;;786151;182;27118;-78
2024/03/12 12:30:44;;;;;;;52.07;28.43;;;11.40;99.90;;;;;;780823;182;26498;-77
2024/03/12 12:33:10;;;;;;;42.60;20.73;;;11.60;99.90;;;;;;785834;183;26468;-79
2024/03/12 12:35:37;;;;;;;49.00;24.97;;;11.60;99.90;;;;;;785043;180;26487;-78
2024/03/12 12:38:06;;;;;;;46.73;26.63;;;11.80;99.90;;;;;;785476;183;27050;-79
2024/03/12 12:40:30;;;;;;;46.83;26.37;;;12.00;99.90;;;;;;791698;180;26458;-78
2024/03/12 12:42:57;;;;;;;45.90;27.97;;;12.10;99.90;;;;;;795419;180;26447;-79
2024/03/12 12:45:24;;;;;;;44.37;26.87;;;12.50;99.90;;;;;;798319;176;26466;-79
2024/03/12 12:47:50;;;;;;;42.57;25.53;;;13.60;99.90;;;;;;780627;182;26501;-78
2024/03/12 12:50:26;;;;;;;47.10;27.30;;;13.50;97.40;;;;;;776278;184;28840;-79
2024/03/12 12:52:56;;;;;;;45.10;26.40;;;13.00;99.50;;;;;;791767;180;26987;-78
2024/03/12 12:55:22;;;;;;;51.03;29.03;;;12.60;99.90;;;;;;782564;183;26490;-78
2024/03/12 12:57:49;;;;;;;49.77;29.83;;;12.50;99.90;;;;;;779170;183;26478;-78
2024/03/12 13:00:18;;;;;;;44.80;26.53;;;12.20;99.90;;;;;;783386;183;27228;-79
2024/03/12 13:02:46;;;;;;;41.97;22.23;;;11.90;99.90;;;;;;786320;183;26468;-79
2024/03/12 13:05:11;;;;;;;47.57;26.73;;;11.50;99.90;;;;;;785455;183;27048;-79
2024/03/12 13:07:39;;;;;;;42.93;24.47;;;11.10;99.90;;;;;;790667;180;26459;-79